createdAt,value
2023-04-20T00:01:10.828Z,101454.75
2023-04-20T00:03:39.088Z,101452.69
2023-04-20T00:06:05.935Z,101451.97
2023-04-20T00:08:32.636Z,101450.91
2023-04-20T00:10:59.297Z,101450.81
2023-04-20T00:13:26.027Z,101449.78
2023-04-20T00:15:52.693Z,101446.75
2023-04-20T00:18:19.395Z,101453.03
2023-04-20T00:20:47.400Z,101446.22
2023-04-20T00:23:14.078Z,101446.53
2023-04-20T00:25:40.772Z,101438.53
2023-04-20T00:28:07.521Z,101441.44
2023-04-20T00:30:34.295Z,101435.97
2023-04-20T00:33:01.038Z,101438.00
2023-04-20T00:35:27.724Z,101442.75
2023-04-20T00:37:55.759Z,101444.72
2023-04-20T00:40:22.385Z,101440.31
2023-04-20T00:42:48.990Z,101442.78
2023-04-20T00:45:15.704Z,101453.56
2023-04-20T00:47:42.369Z,101440.25
2023-04-20T00:50:10.591Z,101435.28
2023-04-20T00:52:37.278Z,101441.25
2023-04-20T00:55:06.368Z,101430.69
2023-04-20T00:57:36.277Z,101432.88
2023-04-20T01:00:03.781Z,101423.78
2023-04-20T01:02:30.673Z,101428.59
2023-04-20T01:04:57.566Z,101432.56
2023-04-20T01:07:24.287Z,101434.34
2023-04-20T01:09:50.914Z,101437.31
2023-04-20T01:12:18.983Z,101430.06
2023-04-20T01:14:45.688Z,101427.53
2023-04-20T01:17:12.335Z,101426.00
2023-04-20T01:19:39.073Z,101429.56
2023-04-20T01:22:05.803Z,101425.63
2023-04-20T01:24:33.955Z,101421.56
2023-04-20T01:27:00.637Z,101420.22
2023-04-20T01:29:27.548Z,101424.97
2023-04-20T01:31:54.259Z,101423.97
2023-04-20T01:34:20.950Z,101422.84
2023-04-20T01:36:47.559Z,101419.56
2023-04-20T01:39:14.277Z,101419.88
2023-04-20T01:41:42.557Z,101422.91
2023-04-20T01:44:09.230Z,101416.16
2023-04-20T01:46:37.516Z,101413.59
2023-04-20T01:49:04.239Z,101414.84
2023-04-20T01:51:30.841Z,101415.66
2023-04-20T01:53:57.425Z,101416.88
2023-04-20T01:56:24.169Z,101415.84
2023-04-20T01:58:52.157Z,101416.16
2023-04-20T02:01:19.874Z,101415.00
2023-04-20T02:03:46.851Z,101414.47
2023-04-20T02:06:13.594Z,101409.47
2023-04-20T02:08:40.292Z,101409.09
2023-04-20T02:11:06.949Z,101412.56
2023-04-20T02:13:33.654Z,101403.47
2023-04-20T02:16:01.669Z,101403.56
2023-04-20T02:18:28.334Z,101407.66
2023-04-20T02:20:54.946Z,101400.69
2023-04-20T02:23:21.594Z,101410.69
2023-04-20T02:25:48.272Z,101416.47
2023-04-20T02:28:14.880Z,101397.84
2023-04-20T02:30:41.633Z,101395.78
2023-04-20T02:33:09.897Z,101390.25
2023-04-20T02:35:36.556Z,101392.72
2023-04-20T02:38:03.257Z,101391.16
2023-04-20T02:40:30.060Z,101393.03
2023-04-20T02:42:56.691Z,101397.66
2023-04-20T02:45:23.338Z,101392.72
2023-04-20T02:47:50.023Z,101390.69
2023-04-20T02:50:18.045Z,101393.66
2023-04-20T02:52:44.693Z,101396.38
2023-04-20T02:55:11.350Z,101399.22
2023-04-20T02:57:37.969Z,101398.25
2023-04-20T03:00:05.613Z,101389.38
2023-04-20T03:02:32.393Z,101394.31
2023-04-20T03:04:59.267Z,101396.66
2023-04-20T03:07:27.325Z,101378.72
2023-04-20T03:09:53.993Z,101384.81
2023-04-20T03:12:20.658Z,101394.94
2023-04-20T03:14:47.233Z,101387.63
2023-04-20T03:17:14.058Z,101393.59
2023-04-20T03:19:40.712Z,101392.03
2023-04-20T03:22:08.397Z,101389.47
2023-04-20T03:24:36.411Z,101395.38
2023-04-20T03:27:03.072Z,101395.59
2023-04-20T03:29:29.710Z,101391.63
2023-04-20T03:31:56.364Z,101387.59
2023-04-20T03:34:22.964Z,101391.22
2023-04-20T03:36:49.560Z,101385.28
2023-04-20T03:39:16.362Z,101391.28
2023-04-20T03:41:44.535Z,101387.88
2023-04-20T03:44:11.176Z,101391.13
2023-04-20T03:46:37.793Z,101388.88
2023-04-20T03:49:04.441Z,101390.19
2023-04-20T03:51:31.090Z,101388.47
2023-04-20T03:53:57.725Z,101386.22
2023-04-20T03:56:24.472Z,101388.63
2023-04-20T03:58:52.582Z,101392.50
2023-04-20T04:01:19.206Z,101385.72
2023-04-20T04:03:46.157Z,101385.38
2023-04-20T04:06:12.940Z,101381.13
2023-04-20T04:08:39.518Z,101375.75
2023-04-20T04:11:06.205Z,101377.06
2023-04-20T04:13:34.624Z,101384.16
2023-04-20T04:16:03.083Z,101385.72
2023-04-20T04:18:31.035Z,101380.88
2023-04-20T04:20:57.799Z,101381.03
2023-04-20T04:23:24.583Z,101383.00
2023-04-20T04:25:51.263Z,101373.94
2023-04-20T04:28:17.928Z,101386.16
2023-04-20T04:30:44.570Z,101381.50
2023-04-20T04:33:12.579Z,101386.19
2023-04-20T04:35:39.260Z,101383.47
2023-04-20T04:38:06.026Z,101380.34
2023-04-20T04:40:32.700Z,101380.72
2023-04-20T04:42:59.370Z,101390.59
2023-04-20T04:45:26.171Z,101388.44
2023-04-20T04:47:53.194Z,101383.44
2023-04-20T04:50:22.342Z,101379.38
2023-04-20T04:52:49.053Z,101379.91
2023-04-20T04:55:16.556Z,101384.31
2023-04-20T04:57:43.424Z,101386.31
2023-04-20T05:00:11.074Z,101384.56
2023-04-20T05:02:37.962Z,101388.72
2023-04-20T05:05:06.983Z,101397.78
2023-04-20T05:07:36.178Z,101397.88
2023-04-20T05:10:02.921Z,101395.59
2023-04-20T05:12:29.624Z,101399.59
2023-04-20T05:14:56.239Z,101391.19
2023-04-20T05:17:22.877Z,101399.69
2023-04-20T05:19:49.551Z,101392.00
2023-04-20T05:22:16.198Z,101391.88
2023-04-20T05:24:44.222Z,101397.47
2023-04-20T05:27:11.126Z,101393.03
2023-04-20T05:29:37.811Z,101400.19
2023-04-20T05:32:04.886Z,101399.19
2023-04-20T05:34:31.688Z,101401.41
2023-04-20T05:36:58.952Z,101387.53
2023-04-20T05:39:25.635Z,101398.72
2023-04-20T05:41:53.673Z,101406.03
2023-04-20T05:44:20.319Z,101412.38
2023-04-20T05:46:46.910Z,101409.44
2023-04-20T05:49:13.558Z,101412.03
2023-04-20T05:51:40.155Z,101415.59
2023-04-20T05:54:06.865Z,101420.59
2023-04-20T05:56:33.514Z,101416.50
2023-04-20T05:59:01.939Z,101414.13
2023-04-20T06:01:28.552Z,101424.19
2023-04-20T06:03:55.533Z,101421.78
2023-04-20T06:06:22.281Z,101419.75
2023-04-20T06:08:49.056Z,101420.28
2023-04-20T06:11:15.670Z,101427.91
2023-04-20T06:13:42.320Z,101429.25
2023-04-20T06:16:10.389Z,101426.59
2023-04-20T06:18:37.229Z,101424.41
2023-04-20T06:21:04.263Z,101429.53
2023-04-20T06:23:30.909Z,101429.41
2023-04-20T06:25:57.550Z,101431.88
2023-04-20T06:28:24.204Z,101428.75
2023-04-20T06:30:50.829Z,101420.22
2023-04-20T06:33:19.104Z,101416.34
2023-04-20T06:35:45.783Z,101420.75
2023-04-20T06:38:12.458Z,101424.34
2023-04-20T06:40:39.233Z,101419.25
2023-04-20T06:43:05.895Z,101421.56
2023-04-20T06:45:33.999Z,101417.84
2023-04-20T06:48:00.926Z,101422.28
2023-04-20T06:50:29.076Z,101418.91
2023-04-20T06:52:55.749Z,101424.50
2023-04-20T06:55:22.408Z,101436.19
2023-04-20T06:57:49.082Z,101433.44
2023-04-20T07:00:17.010Z,101436.25
2023-04-20T07:02:45.522Z,101429.69
2023-04-20T07:05:12.287Z,101436.81
2023-04-20T07:07:40.529Z,101437.28
2023-04-20T07:10:07.992Z,101439.53
2023-04-20T07:12:34.982Z,101437.88
2023-04-20T07:15:02.340Z,101441.81
2023-04-20T07:17:29.029Z,101442.75
2023-04-20T07:19:55.753Z,101453.00
2023-04-20T07:22:22.428Z,101446.59
2023-04-20T07:24:50.741Z,101448.97
2023-04-20T07:27:17.477Z,101448.34
2023-04-20T07:29:44.106Z,101443.63
2023-04-20T07:32:10.848Z,101443.00
2023-04-20T07:34:37.572Z,101439.44
2023-04-20T07:37:05.333Z,101432.16
2023-04-20T07:39:32.000Z,101439.84
2023-04-20T07:42:02.606Z,101438.06
2023-04-20T07:44:29.218Z,101446.66
2023-04-20T07:46:55.894Z,101440.31
2023-04-20T07:49:22.561Z,101438.34
2023-04-20T07:51:49.286Z,101437.31
2023-04-20T07:54:16.002Z,101439.44
2023-04-20T07:56:42.746Z,101434.53
2023-04-20T07:59:10.738Z,101432.28
2023-04-20T08:01:37.412Z,101435.28
2023-04-20T08:04:04.403Z,101432.03
2023-04-20T08:06:31.122Z,101437.97
2023-04-20T08:08:57.727Z,101433.91
2023-04-20T08:11:24.384Z,101439.41
2023-04-20T08:13:51.030Z,101437.84
2023-04-20T08:16:19.143Z,101433.63
2023-04-20T08:18:45.964Z,101439.44
2023-04-20T08:21:12.665Z,101434.34
2023-04-20T08:23:39.302Z,101434.59
2023-04-20T08:26:06.156Z,101441.00
2023-04-20T08:28:34.218Z,101438.34
2023-04-20T08:31:01.403Z,101436.94
2023-04-20T08:33:29.542Z,101442.31
2023-04-20T08:35:56.284Z,101438.06
2023-04-20T08:38:32.936Z,101436.59
2023-04-20T08:41:00.442Z,101440.16
2023-04-20T08:43:27.159Z,101440.81
2023-04-20T08:45:58.735Z,101442.72
2023-04-20T08:48:26.002Z,101446.31
2023-04-20T08:50:54.899Z,101435.50
2023-04-20T08:53:21.661Z,101437.53
2023-04-20T08:55:49.393Z,101433.47
2023-04-20T08:58:17.144Z,101431.59
2023-04-20T09:00:47.335Z,101425.06
2023-04-20T09:03:14.310Z,101432.09
2023-04-20T09:05:41.458Z,101436.97
2023-04-20T09:08:09.525Z,101427.50
2023-04-20T09:10:41.308Z,101420.19
2023-04-20T09:13:08.131Z,101428.78
2023-04-20T09:15:35.246Z,101438.25
2023-04-20T09:18:11.871Z,101424.88
2023-04-20T09:20:38.546Z,101421.94
2023-04-20T09:23:13.125Z,101416.38
2023-04-20T09:25:39.852Z,101417.34
2023-04-20T09:28:07.069Z,101414.94
2023-04-20T09:30:38.265Z,101416.03
2023-04-20T09:33:05.822Z,101406.75
2023-04-20T09:35:32.562Z,101416.59
2023-04-20T09:37:59.319Z,101403.50
2023-04-20T09:40:28.601Z,101401.84
2023-04-20T09:42:58.389Z,101402.88
2023-04-20T09:45:25.685Z,101404.47
2023-04-20T09:47:53.779Z,101403.88
2023-04-20T09:50:28.966Z,101396.47
2023-04-20T09:53:00.591Z,101396.69
2023-04-20T09:55:31.198Z,101394.72
2023-04-20T09:57:58.482Z,101383.19
2023-04-20T10:00:25.409Z,101389.38
2023-04-20T10:02:52.392Z,101384.41
2023-04-20T10:05:19.337Z,101378.66
2023-04-20T10:07:46.205Z,101375.47
2023-04-20T10:10:14.881Z,101367.03
2023-04-20T10:12:50.685Z,101372.53
2023-04-20T10:15:18.112Z,101373.56
2023-04-20T10:17:45.303Z,101362.97
2023-04-20T10:20:23.311Z,101356.81
2023-04-20T10:22:51.898Z,101364.56
2023-04-20T10:25:20.480Z,101362.28
2023-04-20T10:27:56.453Z,101356.72
2023-04-20T10:30:23.476Z,101355.03
2023-04-20T10:32:50.736Z,101349.59
2023-04-20T10:35:17.496Z,101355.16
2023-04-20T10:37:51.337Z,101349.66
2023-04-20T10:40:26.001Z,101346.59
2023-04-20T10:42:52.743Z,101345.09
2023-04-20T10:45:20.967Z,101330.94
2023-04-20T10:47:47.775Z,101344.22
2023-04-20T10:50:16.032Z,101339.25
2023-04-20T10:52:44.104Z,101336.88
2023-04-20T10:55:19.434Z,101336.38
2023-04-20T10:57:46.116Z,101339.66
2023-04-20T11:00:17.356Z,101331.81
2023-04-20T11:02:52.831Z,101329.41
2023-04-20T11:05:20.923Z,101332.88
2023-04-20T11:07:51.456Z,101328.31
2023-04-20T11:10:18.337Z,101327.34
2023-04-20T11:12:45.038Z,101323.06
2023-04-20T11:15:11.837Z,101322.16
2023-04-20T11:17:38.773Z,101306.66
2023-04-20T11:20:09.826Z,101307.28
2023-04-20T11:22:36.847Z,101301.88
2023-04-20T11:25:04.741Z,101306.03
2023-04-20T11:27:31.501Z,101288.66
2023-04-20T11:29:58.508Z,101289.91
2023-04-20T11:32:26.150Z,101293.81
2023-04-20T11:35:06.537Z,101286.06
2023-04-20T11:37:46.377Z,101294.53
2023-04-20T11:40:13.445Z,101284.06
2023-04-20T11:42:40.124Z,101276.72
2023-04-20T11:45:07.828Z,101284.91
2023-04-20T11:47:34.554Z,101269.50
2023-04-20T11:50:01.313Z,101267.47
2023-04-20T11:52:28.036Z,101278.34
2023-04-20T11:54:56.083Z,101257.50
2023-04-20T11:57:22.881Z,101259.28
2023-04-20T11:59:49.657Z,101267.41
2023-04-20T12:02:16.468Z,101254.72
2023-04-20T12:04:43.536Z,101248.97
2023-04-20T12:07:10.563Z,101266.88
2023-04-20T12:09:37.258Z,101257.34
2023-04-20T12:12:06.042Z,101257.47
2023-04-20T12:14:33.038Z,101249.03
2023-04-20T12:16:59.804Z,101244.13
2023-04-20T12:19:26.628Z,101239.84
2023-04-20T12:21:53.285Z,101239.75
2023-04-20T12:24:19.985Z,101233.59
2023-04-20T12:26:46.645Z,101235.09
2023-04-20T12:29:14.787Z,101231.69
2023-04-20T12:31:41.517Z,101219.31
2023-04-20T12:34:08.253Z,101215.34
2023-04-20T12:36:35.094Z,101202.16
2023-04-20T12:39:02.072Z,101224.22
2023-04-20T12:41:28.763Z,101209.84
2023-04-20T12:43:55.425Z,101212.06
2023-04-20T12:46:23.565Z,101204.03
2023-04-20T12:48:50.238Z,101222.06
2023-04-20T12:51:16.894Z,101203.72
2023-04-20T12:53:43.703Z,101207.00
2023-04-20T12:56:10.460Z,101202.94
2023-04-20T12:58:37.301Z,101199.00
2023-04-20T13:01:04.058Z,101201.56
2023-04-20T13:03:32.386Z,101204.06
2023-04-20T13:05:59.331Z,101197.72
2023-04-20T13:08:26.074Z,101200.25
2023-04-20T13:10:52.722Z,101186.47
2023-04-20T13:13:19.545Z,101186.16
2023-04-20T13:15:46.232Z,101188.09
2023-04-20T13:18:12.899Z,101184.94
2023-04-20T13:20:41.392Z,101164.72
2023-04-20T13:23:08.087Z,101161.53
2023-04-20T13:25:34.812Z,101174.00
2023-04-20T13:28:03.060Z,101162.81
2023-04-20T13:30:29.787Z,101148.53
2023-04-20T13:32:56.626Z,101151.53
2023-04-20T13:35:24.178Z,101137.94
2023-04-20T13:37:52.412Z,101140.97
2023-04-20T13:40:19.058Z,101124.84
2023-04-20T13:42:45.799Z,101125.97
2023-04-20T13:45:12.792Z,101114.63
2023-04-20T13:47:40.296Z,101111.75
2023-04-20T13:50:08.622Z,101106.16
2023-04-20T13:52:35.503Z,101095.31
2023-04-20T13:55:03.713Z,101092.75
2023-04-20T13:57:30.449Z,101092.53
2023-04-20T13:59:57.352Z,101085.09
2023-04-20T14:02:24.198Z,101092.00
2023-04-20T14:04:51.169Z,101088.09
2023-04-20T14:07:17.865Z,101100.53
2023-04-20T14:09:44.679Z,101099.34
2023-04-20T14:12:13.279Z,101097.41
2023-04-20T14:14:40.147Z,101088.47
2023-04-20T14:17:06.776Z,101089.47
2023-04-20T14:19:33.511Z,101103.97
2023-04-20T14:22:00.264Z,101085.84
2023-04-20T14:24:26.974Z,101093.06
2023-04-20T14:26:53.677Z,101088.28
2023-04-20T14:29:21.731Z,101090.38
2023-04-20T14:31:48.647Z,101082.94
2023-04-20T14:34:15.634Z,101087.72
2023-04-20T14:36:42.421Z,101081.06
2023-04-20T14:39:09.112Z,101084.50
2023-04-20T14:41:36.048Z,101070.25
2023-04-20T14:44:02.715Z,101063.84
2023-04-20T14:46:30.827Z,101071.88
2023-04-20T14:48:57.571Z,101060.13
2023-04-20T14:51:24.267Z,101066.94
2023-04-20T14:53:51.045Z,101060.28
2023-04-20T14:56:17.778Z,101050.13
2023-04-20T14:58:44.534Z,101063.25
2023-04-20T15:01:11.215Z,101044.88
2023-04-20T15:03:39.539Z,101054.97
2023-04-20T15:06:07.229Z,101044.09
2023-04-20T15:08:33.890Z,101041.22
2023-04-20T15:11:00.590Z,101029.81
2023-04-20T15:13:27.332Z,101029.41
2023-04-20T15:15:55.259Z,101020.63
2023-04-20T15:18:22.364Z,101026.00
2023-04-20T15:20:54.943Z,101012.94
2023-04-20T15:23:21.958Z,101007.41
2023-04-20T15:25:48.731Z,100993.19
2023-04-20T15:28:15.580Z,101010.53
2023-04-20T15:30:42.585Z,100998.75
2023-04-20T15:33:09.423Z,100999.66
2023-04-20T15:35:36.247Z,100989.00
2023-04-20T15:38:04.477Z,100996.16
2023-04-20T15:40:31.164Z,100990.78
2023-04-20T15:42:57.848Z,100989.44
2023-04-20T15:45:24.672Z,100982.44
2023-04-20T15:47:51.621Z,100984.81
2023-04-20T15:50:18.873Z,100984.25
2023-04-20T15:52:45.717Z,100978.31
2023-04-20T15:55:13.850Z,100970.91
2023-04-20T15:57:41.319Z,100978.09
2023-04-20T16:00:10.484Z,100966.56
2023-04-20T16:02:37.727Z,100962.91
2023-04-20T16:05:05.197Z,100974.09
2023-04-20T16:07:31.899Z,100963.56
2023-04-20T16:09:58.876Z,100968.72
2023-04-20T16:12:27.180Z,100952.81
2023-04-20T16:14:53.991Z,100964.28
2023-04-20T16:17:20.899Z,100960.56
2023-04-20T16:19:47.624Z,100964.59
2023-04-20T16:22:14.350Z,100968.00
2023-04-20T16:24:41.098Z,100965.22
2023-04-20T16:27:07.835Z,100971.00
2023-04-20T16:29:35.938Z,100952.38
2023-04-20T16:32:02.688Z,100948.06
2023-04-20T16:34:29.332Z,100963.47
2023-04-20T16:36:56.034Z,100949.97
2023-04-20T16:39:22.826Z,100952.22
2023-04-20T16:41:49.510Z,100954.28
2023-04-20T16:44:16.699Z,100952.19
2023-04-20T16:46:47.724Z,100951.50
2023-04-20T16:49:14.415Z,100951.97
2023-04-20T16:51:41.075Z,100941.25
2023-04-20T16:54:07.749Z,100946.84
2023-04-20T16:56:34.512Z,100930.50
2023-04-20T16:59:01.142Z,100945.91
2023-04-20T17:01:27.966Z,100942.22
2023-04-20T17:03:56.094Z,100942.34
2023-04-20T17:06:22.804Z,100932.03
2023-04-20T17:08:49.494Z,100925.28
2023-04-20T17:11:16.148Z,100930.34
2023-04-20T17:13:42.869Z,100921.59
2023-04-20T17:16:09.669Z,100932.25
2023-04-20T17:18:36.409Z,100931.47
2023-04-20T17:21:04.917Z,100934.47
2023-04-20T17:23:33.428Z,100926.28
2023-04-20T17:26:00.141Z,100943.69
2023-04-20T17:28:26.836Z,100925.19
2023-04-20T17:30:53.609Z,100928.97
2023-04-20T17:33:20.303Z,100935.97
2023-04-20T17:35:46.961Z,100939.75
2023-04-20T17:38:15.079Z,100932.94
2023-04-20T17:40:41.730Z,100927.72
2023-04-20T17:43:08.439Z,100928.31
2023-04-20T17:45:36.682Z,100928.59
2023-04-20T17:48:03.662Z,100928.56
2023-04-20T17:50:30.417Z,100925.44
2023-04-20T17:52:57.161Z,100926.97
2023-04-20T17:55:25.449Z,100920.16
2023-04-20T17:57:52.114Z,100924.16
2023-04-20T18:00:19.086Z,100933.69
2023-04-20T18:02:45.925Z,100914.66
2023-04-20T18:05:12.713Z,100922.66
2023-04-20T18:07:39.404Z,100921.41
2023-04-20T18:10:07.245Z,100927.81
2023-04-20T18:12:35.404Z,100932.66
2023-04-20T18:15:02.150Z,100921.88
2023-04-20T18:17:28.870Z,100927.78
2023-04-20T18:19:55.617Z,100915.50
2023-04-20T18:22:22.306Z,100910.78
2023-04-20T18:24:49.051Z,100908.50
2023-04-20T18:27:15.710Z,100904.94
2023-04-20T18:29:43.749Z,100896.06
2023-04-20T18:32:10.552Z,100895.78
2023-04-20T18:34:37.216Z,100886.13
2023-04-20T18:37:03.933Z,100884.19
2023-04-20T18:39:30.623Z,100883.81
2023-04-20T18:41:57.294Z,100878.72
2023-04-20T18:44:24.009Z,100887.78
2023-04-20T18:46:52.256Z,100885.47
2023-04-20T18:49:18.997Z,100875.28
2023-04-20T18:51:45.633Z,100876.97
2023-04-20T18:54:12.522Z,100885.66
2023-04-20T18:56:39.367Z,100888.66
2023-04-20T18:59:06.160Z,100886.91
2023-04-20T19:01:33.170Z,100905.13
2023-04-20T19:04:01.533Z,100894.16
2023-04-20T19:06:28.447Z,100893.88
2023-04-20T19:08:55.136Z,100891.47
2023-04-20T19:11:21.808Z,100897.41
2023-04-20T19:13:48.493Z,100892.28
2023-04-20T19:16:15.310Z,100881.44
2023-04-20T19:18:41.986Z,100902.53
2023-04-20T19:21:10.797Z,100891.94
2023-04-20T19:23:37.512Z,100892.38
2023-04-20T19:26:04.237Z,100890.34
2023-04-20T19:28:30.983Z,100888.19
2023-04-20T19:30:58.862Z,100886.50
2023-04-20T19:33:25.669Z,100890.59
2023-04-20T19:35:52.423Z,100880.16
2023-04-20T19:38:21.652Z,100878.03
2023-04-20T19:40:48.730Z,100874.47
2023-04-20T19:43:15.447Z,100869.88
2023-04-20T19:45:42.197Z,100870.75
2023-04-20T19:48:09.010Z,100861.88
2023-04-20T19:50:35.794Z,100860.88
2023-04-20T19:53:02.496Z,100853.50
2023-04-20T19:55:30.581Z,100846.59
2023-04-20T19:57:57.307Z,100847.66
2023-04-20T20:00:24.203Z,100849.78
2023-04-20T20:02:51.074Z,100848.81
2023-04-20T20:05:17.979Z,100854.66
2023-04-20T20:07:44.667Z,100853.44
2023-04-20T20:10:11.403Z,100859.69
2023-04-20T20:12:39.477Z,100875.16
2023-04-20T20:15:06.736Z,100872.25
2023-04-20T20:17:33.410Z,100881.13
2023-04-20T20:20:00.296Z,100877.41
2023-04-20T20:22:27.059Z,100880.81
2023-04-20T20:24:53.717Z,100880.88
2023-04-20T20:27:20.597Z,100871.75
2023-04-20T20:29:48.797Z,100871.94
2023-04-20T20:32:15.545Z,100865.75
2023-04-20T20:34:42.272Z,100876.78
2023-04-20T20:37:09.124Z,100872.53
2023-04-20T20:39:35.921Z,100877.28
2023-04-20T20:42:02.703Z,100879.50
2023-04-20T20:44:29.686Z,100871.75
2023-04-20T20:46:57.776Z,100861.00
2023-04-20T20:49:24.630Z,100878.38
2023-04-20T20:51:51.426Z,100876.78
2023-04-20T20:54:18.208Z,100870.72
2023-04-20T20:56:44.971Z,100868.06
2023-04-20T20:59:11.637Z,100864.03
2023-04-20T21:01:38.414Z,100858.84
2023-04-20T21:04:06.826Z,100854.44
2023-04-20T21:06:33.575Z,100863.00
2023-04-20T21:09:00.427Z,100852.44
2023-04-20T21:11:27.074Z,100865.34
2023-04-20T21:13:53.700Z,100862.94
2023-04-20T21:16:20.423Z,100859.63
2023-04-20T21:18:47.084Z,100856.00
2023-04-20T21:21:15.211Z,100857.81
2023-04-20T21:23:41.908Z,100862.19
2023-04-20T21:26:08.597Z,100860.22
2023-04-20T21:28:35.325Z,100865.81
2023-04-20T21:31:02.032Z,100867.47
2023-04-20T21:33:28.793Z,100860.00
2023-04-20T21:35:57.660Z,100864.41
2023-04-20T21:38:27.017Z,100852.59
2023-04-20T21:40:53.626Z,100863.38
2023-04-20T21:43:20.327Z,100856.59
2023-04-20T21:45:47.094Z,100856.41
2023-04-20T21:48:13.752Z,100855.09
2023-04-20T21:50:40.513Z,100854.22
2023-04-20T21:53:07.242Z,100860.22
2023-04-20T21:55:35.349Z,100855.94
2023-04-20T21:58:02.013Z,100858.84
2023-04-20T22:00:28.692Z,100858.28
2023-04-20T22:02:55.556Z,100850.66
2023-04-20T22:05:22.696Z,100841.09
2023-04-20T22:07:49.361Z,100849.56
2023-04-20T22:10:16.017Z,100851.75
2023-04-20T22:12:44.127Z,100847.81
2023-04-20T22:15:13.591Z,100847.75
2023-04-20T22:17:40.803Z,100841.16
2023-04-20T22:20:10.180Z,100851.09
2023-04-20T22:22:37.975Z,100854.69
2023-04-20T22:25:06.570Z,100840.53
2023-04-20T22:27:34.549Z,100839.47
2023-04-20T22:30:02.821Z,100838.63
2023-04-20T22:32:29.582Z,100840.59
2023-04-20T22:34:56.291Z,100839.41
2023-04-20T22:37:22.941Z,100851.09
2023-04-20T22:39:49.591Z,100840.19
2023-04-20T22:42:16.286Z,100839.03
2023-04-20T22:44:42.901Z,100837.94
2023-04-20T22:47:11.033Z,100831.44
2023-04-20T22:49:37.772Z,100840.41
2023-04-20T22:52:04.619Z,100837.19
2023-04-20T22:54:31.366Z,100829.38
2023-04-20T22:56:58.039Z,100831.34
2023-04-20T22:59:24.731Z,100835.63
2023-04-20T23:01:51.421Z,100817.09
2023-04-20T23:04:19.591Z,100816.19
2023-04-20T23:06:46.295Z,100815.53
2023-04-20T23:09:13.067Z,100817.66
2023-04-20T23:11:39.957Z,100807.03
2023-04-20T23:14:06.962Z,100793.91
2023-04-20T23:16:33.827Z,100785.59
2023-04-20T23:19:01.223Z,100789.75
2023-04-20T23:21:29.312Z,100786.03
2023-04-20T23:23:56.015Z,100800.22
2023-04-20T23:26:22.965Z,100800.69
2023-04-20T23:28:50.838Z,100801.00
2023-04-20T23:31:17.610Z,100799.78
2023-04-20T23:33:44.360Z,100795.97
2023-04-20T23:36:11.039Z,100800.91
2023-04-20T23:38:39.318Z,100798.44
2023-04-20T23:41:08.718Z,100790.66
2023-04-20T23:43:35.466Z,100784.47
2023-04-20T23:46:02.149Z,100778.91
2023-04-20T23:48:28.908Z,100778.03
2023-04-20T23:50:55.645Z,100785.19
2023-04-20T23:53:22.540Z,100783.63
2023-04-20T23:55:50.695Z,100780.47
2023-04-20T23:58:17.336Z,100772.63
